Mehmet Bey — 9HUD6 — position and weather

sailwx.info

Track history (hours):
 
Tides and Currents Weather Stations Pressure Air Temp Water Temp Dewpoint Dewpoint Depression Visibility Wind Speed Wind Dir Waves Ship Positions

Mehmet Bey

Last reported at 2014-Nov-19 23:30 UTC. Time now 2014-Nov-24 22:43 UTC.
Position N 38°23' W 009°45'.

Length 131 m; draft 6.9 m.

Type: Cargo ship. MMSI: 248864000.

Date/timePositionNaut miles runAvg speedWind from/ knotsBaromVisibWave heightAir tempDewpointWater temp
2014-Nov-19 23:30N 38°23' W 009°45'11 8.5
2014-Nov-19 22:15N 38°13' W 009°42'6 8.3
2014-Nov-19 21:33N 38°08' W 009°41'8 8.0
2014-Nov-19 20:33N 37°60' W 009°38'8 7.8
2014-Nov-19 19:33N 37°52' W 009°36'8 7.6
2014-Nov-19 18:33N 37°45' W 009°34'7 7.3
2014-Nov-19 17:33N 37°38' W 009°30'216 7.0
2014-Nov-18 10:29N 35°59' W 005°30'7 7.1
2014-Nov-18 09:33N 36°01' W 005°22'7 7.3
2014-Nov-18 08:34N 36°02' W 005°13'370 7.8
2014-Nov-16 09:19N 38°49' E 001°42'7 8.8
2014-Nov-16 08:33N 38°56' E 001°44'8 8.3
2014-Nov-16 07:33N 39°04' E 001°47'7 7.2
2014-Nov-16 06:33N 39°11' E 001°50'7 6.7
2014-Nov-16 05:33N 39°17' E 001°52'8 6.4
2014-Nov-16 04:19N 39°25' E 001°54'5 6.0
2014-Nov-16 03:33N 39°29' E 001°55'6 5.6
2014-Nov-16 02:33N 39°35' E 001°57'5 5.5
2014-Nov-16 01:33N 39°40' E 001°58'5 5.3
2014-Nov-16 00:33N 39°45' E 002°00'4 4.2
2014-Nov-15 23:34N 39°49' E 002°02'4 4.0
2014-Nov-15 22:33N 39°52' E 002°06'4 4.0
2014-Nov-15 21:34N 39°54' E 002°10'4 4.5
2014-Nov-15 20:33N 39°57' E 002°14'5 4.6
2014-Nov-15 19:34N 40°00' E 002°19'6 6.2
2014-Nov-15 18:33N 40°05' E 002°25'7 6.9
2014-Nov-15 17:33N 40°09' E 002°31'7 7.3
2014-Nov-15 16:34N 40°14' E 002°38'7 7.3
2014-Nov-15 15:33N 40°19' E 002°46'7 6.6
2014-Nov-15 14:33N 40°23' E 002°52'6 5.7
2014-Nov-15 13:33N 40°27' E 002°58'5 5.4
2014-Nov-15 12:33N 40°30' E 003°04'6 6.1
2014-Nov-15 11:33N 40°34' E 003°10'7 7.4
2014-Nov-15 10:34N 40°39' E 003°17'8 7.6
2014-Nov-15 09:33N 40°44' E 003°25'8 8.0
2014-Nov-15 08:31N 40°50' E 003°33'84 7.4
2014-Nov-14 21:05N 41°45' E 004°57'45 7.7
2014-Nov-14 15:14N 42°15' E 005°43'6 8.2
2014-Nov-14 14:33N 42°18' E 005°49'18 8.1
2014-Nov-14 12:17N 42°30' E 006°08'6 8.1
2014-Nov-14 11:33N 42°34' E 006°14'9 9.0
2014-Nov-14 10:34N 42°40' E 006°23'10 9.5
2014-Nov-14 09:33N 42°46' E 006°33'10 9.6
2014-Nov-14 08:32N 42°53' E 006°43'10 9.8
2014-Nov-14 07:34N 42°59' E 006°52'12 9.9
2014-Nov-14 06:23N 43°07' E 007°05'10 9.5
2014-Nov-14 05:18N 43°13' E 007°15'21 9.6
2014-Nov-14 03:10N 43°27' E 007°36'44 9.5
2014-Nov-13 22:33N 43°57' E 008°21'19 9.3
2014-Nov-13 20:29N 44°15' E 008°30'3 3.7
2014-Nov-13 19:33N 44°19' E 008°30'0 0.0
2014-Nov-13 18:33N 44°19' E 008°30'0 0.0
2014-Nov-13 17:32N 44°19' E 008°30'0 0.0
2014-Nov-13 16:33N 44°19' E 008°30'0 0.0
2014-Nov-13 15:34N 44°19' E 008°30'0 0.0
2014-Nov-13 14:30N 44°19' E 008°30'0 0.0
2014-Nov-13 13:32N 44°19' E 008°30'0 0.0
2014-Nov-13 12:33N 44°19' E 008°30'0 0.0
2014-Nov-13 11:34N 44°19' E 008°30'0 0.0
2014-Nov-13 10:33N 44°19' E 008°30'0 0.0
2014-Nov-13 09:34N 44°19' E 008°30'0 0.0
2014-Nov-13 08:33N 44°19' E 008°30'0 0.0
2014-Nov-13 07:33N 44°19' E 008°30'0 0.0
2014-Nov-13 06:34N 44°19' E 008°30'0 0.0
2014-Nov-13 05:33N 44°19' E 008°30'0 0.0
2014-Nov-13 04:33N 44°19' E 008°30'0 0.0
2014-Nov-13 03:33N 44°19' E 008°30'0 0.0
2014-Nov-13 02:33N 44°19' E 008°30'0 0.0
2014-Nov-13 01:34N 44°19' E 008°30'0 0.0
2014-Nov-13 00:34N 44°19' E 008°30'0 0.0
2014-Nov-12 23:34N 44°19' E 008°30'0 0.0
2014-Nov-12 22:33N 44°19' E 008°30'0 0.0
2014-Nov-12 21:14N 44°19' E 008°30'0 0.0
2014-Nov-12 20:33N 44°19' E 008°30'0 0.0
2014-Nov-12 19:34N 44°19' E 008°30'0 0.0
2014-Nov-12 18:33N 44°19' E 008°30'0 0.0
2014-Nov-12 17:32N 44°19' E 008°30'0 0.0
2014-Nov-12 16:34N 44°19' E 008°30'0 0.0
2014-Nov-12 15:33N 44°19' E 008°30'0 0.0
2014-Nov-12 14:33N 44°19' E 008°30'0 0.0
2014-Nov-12 13:33N 44°19' E 008°30'0 0.0
2014-Nov-12 12:34N 44°19' E 008°30'0 0.0
2014-Nov-12 11:33N 44°19' E 008°30'0 0.0
2014-Nov-12 10:34N 44°19' E 008°30'0 0.0
2014-Nov-12 09:31N 44°19' E 008°30'0 0.0
2014-Nov-12 08:31N 44°19' E 008°30'0 0.0
2014-Nov-12 07:34N 44°19' E 008°30'0 0.0
2014-Nov-12 06:33N 44°19' E 008°30'0 0.0
2014-Nov-12 05:22N 44°19' E 008°30'0 0.0
2014-Nov-12 04:20N 44°19' E 008°30'0 0.0
2014-Nov-12 03:34N 44°19' E 008°30'0 0.0
2014-Nov-12 02:33N 44°19' E 008°30'0 0.0
2014-Nov-12 01:33N 44°19' E 008°30'0 0.0
2014-Nov-12 00:33N 44°19' E 008°30'0 0.0
2014-Nov-11 23:34N 44°19' E 008°30'0 0.0
2014-Nov-11 22:32N 44°19' E 008°30'0 0.0
2014-Nov-11 21:34N 44°19' E 008°30'0 0.0
2014-Nov-11 20:18N 44°19' E 008°30'0 0.0
2014-Nov-11 19:33N 44°19' E 008°30'0 0.0
2014-Nov-11 18:33N 44°19' E 008°30'0 0.0
2014-Nov-11 17:33N 44°19' E 008°30'0 0.0
2014-Nov-11 16:33N 44°19' E 008°30'0 0.0
2014-Nov-11 15:34N 44°19' E 008°30'0 0.0
2014-Nov-11 14:33N 44°19' E 008°30'0 0.0
2014-Nov-11 13:34N 44°19' E 008°30'0 0.0
2014-Nov-11 12:34N 44°19' E 008°30'0 0.0
2014-Nov-11 11:34N 44°19' E 008°30'0 0.0
2014-Nov-11 10:33N 44°19' E 008°30'0 0.0
2014-Nov-11 09:33N 44°19' E 008°30'0 0.0
2014-Nov-11 08:34N 44°19' E 008°30'0 0.0
2014-Nov-11 07:33N 44°19' E 008°30'0 0.0
2014-Nov-11 06:34N 44°19' E 008°30'0 0.0
2014-Nov-11 05:34N 44°19' E 008°30'0 0.0
2014-Nov-11 04:32N 44°19' E 008°30'0 0.0
2014-Nov-11 03:33N 44°19' E 008°30'0 0.0
2014-Nov-11 02:33N 44°19' E 008°30'0 0.0
2014-Nov-11 01:34N 44°19' E 008°30'0 0.0
2014-Nov-11 00:34N 44°19' E 008°30'0 0.0
2014-Nov-10 23:33N 44°19' E 008°30'0 0.0
2014-Nov-10 22:34N 44°19' E 008°30'0 0.0
2014-Nov-10 21:30N 44°19' E 008°30'0 0.0
2014-Nov-10 20:33N 44°19' E 008°30'0 0.0
2014-Nov-10 19:34N 44°19' E 008°30'0 0.0
2014-Nov-10 18:33N 44°19' E 008°30'0 0.0
2014-Nov-10 17:33N 44°19' E 008°30'0 0.0
2014-Nov-10 16:34N 44°19' E 008°30'0 0.0
2014-Nov-10 15:34N 44°19' E 008°30'0 0.0
2014-Nov-10 14:33N 44°19' E 008°30'0 0.0
2014-Nov-10 13:33N 44°19' E 008°30'0 0.0
2014-Nov-10 12:32N 44°19' E 008°30'0 0.0
2014-Nov-10 11:27N 44°19' E 008°30'0 0.0
2014-Nov-10 10:33N 44°19' E 008°30'0 0.0
2014-Nov-10 09:34N 44°19' E 008°30'0 0.0
2014-Nov-10 08:34N 44°19' E 008°30'0 0.0
2014-Nov-10 07:33N 44°19' E 008°30'0 0.2
2014-Nov-10 06:32N 44°19' E 008°30'1 0.4
2014-Nov-10 04:17N 44°18' E 008°31'0 0.0
2014-Nov-10 03:32N 44°18' E 008°30'0 0.0
2014-Nov-10 02:32N 44°18' E 008°31'0 0.0
2014-Nov-10 01:29N 44°18' E 008°31'0 0.0
2014-Nov-10 00:32N 44°18' E 008°31'  
Track history (hours):
 
Tides and Currents Weather Stations Pressure Air Temp Water Temp Dewpoint Dewpoint Depression Visibility Wind Speed Wind Dir Waves Ship Positions

Mehmet Bey

Last reported at 2014-Nov-19 23:30 UTC. Time now 2014-Nov-24 22:43 UTC.
Position N 38°23' W 009°45'.

Length 131 m; draft 6.9 m.

Type: Cargo ship. MMSI: 248864000.

Date/timePositionNaut miles runAvg speedWind from/ knotsBaromVisibWave heightAir tempDewpointWater temp
2014-Nov-19 23:30N 38°23' W 009°45'11 8.5
2014-Nov-19 22:15N 38°13' W 009°42'6 8.3
2014-Nov-19 21:33N 38°08' W 009°41'8 8.0
2014-Nov-19 20:33N 37°60' W 009°38'8 7.8
2014-Nov-19 19:33N 37°52' W 009°36'8 7.6
2014-Nov-19 18:33N 37°45' W 009°34'7 7.3
2014-Nov-19 17:33N 37°38' W 009°30'216 7.0
2014-Nov-18 10:29N 35°59' W 005°30'7 7.1
2014-Nov-18 09:33N 36°01' W 005°22'7 7.3
2014-Nov-18 08:34N 36°02' W 005°13'370 7.8
2014-Nov-16 09:19N 38°49' E 001°42'7 8.8
2014-Nov-16 08:33N 38°56' E 001°44'8 8.3
2014-Nov-16 07:33N 39°04' E 001°47'7 7.2
2014-Nov-16 06:33N 39°11' E 001°50'7 6.7
2014-Nov-16 05:33N 39°17' E 001°52'8 6.4
2014-Nov-16 04:19N 39°25' E 001°54'5 6.0
2014-Nov-16 03:33N 39°29' E 001°55'6 5.6
2014-Nov-16 02:33N 39°35' E 001°57'5 5.5
2014-Nov-16 01:33N 39°40' E 001°58'5 5.3
2014-Nov-16 00:33N 39°45' E 002°00'4 4.2
2014-Nov-15 23:34N 39°49' E 002°02'4 4.0
2014-Nov-15 22:33N 39°52' E 002°06'4 4.0
2014-Nov-15 21:34N 39°54' E 002°10'4 4.5
2014-Nov-15 20:33N 39°57' E 002°14'5 4.6
2014-Nov-15 19:34N 40°00' E 002°19'6 6.2
2014-Nov-15 18:33N 40°05' E 002°25'7 6.9
2014-Nov-15 17:33N 40°09' E 002°31'7 7.3
2014-Nov-15 16:34N 40°14' E 002°38'7 7.3
2014-Nov-15 15:33N 40°19' E 002°46'7 6.6
2014-Nov-15 14:33N 40°23' E 002°52'6 5.7
2014-Nov-15 13:33N 40°27' E 002°58'5 5.4
2014-Nov-15 12:33N 40°30' E 003°04'6 6.1
2014-Nov-15 11:33N 40°34' E 003°10'7 7.4
2014-Nov-15 10:34N 40°39' E 003°17'8 7.6
2014-Nov-15 09:33N 40°44' E 003°25'8 8.0
2014-Nov-15 08:31N 40°50' E 003°33'84 7.4
2014-Nov-14 21:05N 41°45' E 004°57'45 7.7
2014-Nov-14 15:14N 42°15' E 005°43'6 8.2
2014-Nov-14 14:33N 42°18' E 005°49'18 8.1
2014-Nov-14 12:17N 42°30' E 006°08'6 8.1
2014-Nov-14 11:33N 42°34' E 006°14'9 9.0
2014-Nov-14 10:34N 42°40' E 006°23'10 9.5
2014-Nov-14 09:33N 42°46' E 006°33'10 9.6
2014-Nov-14 08:32N 42°53' E 006°43'10 9.8
2014-Nov-14 07:34N 42°59' E 006°52'12 9.9
2014-Nov-14 06:23N 43°07' E 007°05'10 9.5
2014-Nov-14 05:18N 43°13' E 007°15'21 9.6
2014-Nov-14 03:10N 43°27' E 007°36'44 9.5
2014-Nov-13 22:33N 43°57' E 008°21'19 9.3
2014-Nov-13 20:29N 44°15' E 008°30'3 3.7
2014-Nov-13 19:33N 44°19' E 008°30'0 0.0
2014-Nov-13 18:33N 44°19' E 008°30'0 0.0
2014-Nov-13 17:32N 44°19' E 008°30'0 0.0
2014-Nov-13 16:33N 44°19' E 008°30'0 0.0
2014-Nov-13 15:34N 44°19' E 008°30'0 0.0
2014-Nov-13 14:30N 44°19' E 008°30'0 0.0
2014-Nov-13 13:32N 44°19' E 008°30'0 0.0
2014-Nov-13 12:33N 44°19' E 008°30'0 0.0
2014-Nov-13 11:34N 44°19' E 008°30'0 0.0
2014-Nov-13 10:33N 44°19' E 008°30'0 0.0
2014-Nov-13 09:34N 44°19' E 008°30'0 0.0
2014-Nov-13 08:33N 44°19' E 008°30'0 0.0
2014-Nov-13 07:33N 44°19' E 008°30'0 0.0
2014-Nov-13 06:34N 44°19' E 008°30'0 0.0
2014-Nov-13 05:33N 44°19' E 008°30'0 0.0
2014-Nov-13 04:33N 44°19' E 008°30'0 0.0
2014-Nov-13 03:33N 44°19' E 008°30'0 0.0
2014-Nov-13 02:33N 44°19' E 008°30'0 0.0
2014-Nov-13 01:34N 44°19' E 008°30'0 0.0
2014-Nov-13 00:34N 44°19' E 008°30'0 0.0
2014-Nov-12 23:34N 44°19' E 008°30'0 0.0
2014-Nov-12 22:33N 44°19' E 008°30'0 0.0
2014-Nov-12 21:14N 44°19' E 008°30'0 0.0
2014-Nov-12 20:33N 44°19' E 008°30'0 0.0
2014-Nov-12 19:34N 44°19' E 008°30'0 0.0
2014-Nov-12 18:33N 44°19' E 008°30'0 0.0
2014-Nov-12 17:32N 44°19' E 008°30'0 0.0
2014-Nov-12 16:34N 44°19' E 008°30'0 0.0
2014-Nov-12 15:33N 44°19' E 008°30'0 0.0
2014-Nov-12 14:33N 44°19' E 008°30'0 0.0
2014-Nov-12 13:33N 44°19' E 008°30'0 0.0
2014-Nov-12 12:34N 44°19' E 008°30'0 0.0
2014-Nov-12 11:33N 44°19' E 008°30'0 0.0
2014-Nov-12 10:34N 44°19' E 008°30'0 0.0
2014-Nov-12 09:31N 44°19' E 008°30'0 0.0
2014-Nov-12 08:31N 44°19' E 008°30'0 0.0
2014-Nov-12 07:34N 44°19' E 008°30'0 0.0
2014-Nov-12 06:33N 44°19' E 008°30'0 0.0
2014-Nov-12 05:22N 44°19' E 008°30'0 0.0
2014-Nov-12 04:20N 44°19' E 008°30'0 0.0
2014-Nov-12 03:34N 44°19' E 008°30'0 0.0
2014-Nov-12 02:33N 44°19' E 008°30'0 0.0
2014-Nov-12 01:33N 44°19' E 008°30'0 0.0
2014-Nov-12 00:33N 44°19' E 008°30'0 0.0
2014-Nov-11 23:34N 44°19' E 008°30'0 0.0
2014-Nov-11 22:32N 44°19' E 008°30'0 0.0
2014-Nov-11 21:34N 44°19' E 008°30'0 0.0
2014-Nov-11 20:18N 44°19' E 008°30'0 0.0
2014-Nov-11 19:33N 44°19' E 008°30'0 0.0
2014-Nov-11 18:33N 44°19' E 008°30'0 0.0
2014-Nov-11 17:33N 44°19' E 008°30'0 0.0
2014-Nov-11 16:33N 44°19' E 008°30'0 0.0
2014-Nov-11 15:34N 44°19' E 008°30'0 0.0
2014-Nov-11 14:33N 44°19' E 008°30'0 0.0
2014-Nov-11 13:34N 44°19' E 008°30'0 0.0
2014-Nov-11 12:34N 44°19' E 008°30'0 0.0
2014-Nov-11 11:34N 44°19' E 008°30'0 0.0
2014-Nov-11 10:33N 44°19' E 008°30'0 0.0
2014-Nov-11 09:33N 44°19' E 008°30'0 0.0
2014-Nov-11 08:34N 44°19' E 008°30'0 0.0
2014-Nov-11 07:33N 44°19' E 008°30'0 0.0
2014-Nov-11 06:34N 44°19' E 008°30'0 0.0
2014-Nov-11 05:34N 44°19' E 008°30'0 0.0
2014-Nov-11 04:32N 44°19' E 008°30'0 0.0
2014-Nov-11 03:33N 44°19' E 008°30'0 0.0
2014-Nov-11 02:33N 44°19' E 008°30'0 0.0
2014-Nov-11 01:34N 44°19' E 008°30'0 0.0
2014-Nov-11 00:34N 44°19' E 008°30'0 0.0
2014-Nov-10 23:33N 44°19' E 008°30'0 0.0
2014-Nov-10 22:34N 44°19' E 008°30'0 0.0
2014-Nov-10 21:30N 44°19' E 008°30'0 0.0
2014-Nov-10 20:33N 44°19' E 008°30'0 0.0
2014-Nov-10 19:34N 44°19' E 008°30'0 0.0
2014-Nov-10 18:33N 44°19' E 008°30'0 0.0
2014-Nov-10 17:33N 44°19' E 008°30'0 0.0
2014-Nov-10 16:34N 44°19' E 008°30'0 0.0
2014-Nov-10 15:34N 44°19' E 008°30'0 0.0
2014-Nov-10 14:33N 44°19' E 008°30'0 0.0
2014-Nov-10 13:33N 44°19' E 008°30'0 0.0
2014-Nov-10 12:32N 44°19' E 008°30'0 0.0
2014-Nov-10 11:27N 44°19' E 008°30'0 0.0
2014-Nov-10 10:33N 44°19' E 008°30'0 0.0
2014-Nov-10 09:34N 44°19' E 008°30'0 0.0
2014-Nov-10 08:34N 44°19' E 008°30'0 0.0
2014-Nov-10 07:33N 44°19' E 008°30'0 0.2
2014-Nov-10 06:32N 44°19' E 008°30'1 0.4
2014-Nov-10 04:17N 44°18' E 008°31'0 0.0
2014-Nov-10 03:32N 44°18' E 008°30'0 0.0
2014-Nov-10 02:32N 44°18' E 008°31'0 0.0
2014-Nov-10 01:29N 44°18' E 008°31'0 0.0
2014-Nov-10 00:32N 44°18' E 008°31'  

Dump ship's entire track history